Nearby METAR Reports

 

KEQY - Monroe, North Carolina, USA
Distance from station: S 11mi, 18km
Updated: Sun, 05/01/2016 10:53pm EDT
Mostly cloudy
Mostly cloudy
 Wind from SSW
Wind: SSW 7 mph , 11 km/h
Temperature: 64°F , 18°C
Dew Point: 61°F , 16°C
Humidity: 88%
Barometer: 30.01 inHg , 1016.3 hPa
Clouds: Mostly cloudy
Visibility: 10 miles , 16 km
Cloud details: Few Clouds 7500 ft
Mostly cloudy 11000 ft
2016/05/02 02:53 KEQY 020253Z AUTO 21006KT 10SM FEW075 BKN110 18/16 A3001 RMK AO2 LTG DSNT SE-W RAE41 TSE25 SLP166 P0003 60011 T01830156 58004
KJQF - Concord Reg Arpt, North Carolina, USA
Distance from station: NNW 16mi, 25km
Updated: Sun, 05/01/2016 11:10pm EDT
Clear
Clear
 Wind from calm
Wind: Calm
Temperature: 68°F , 20°C
Dew Point: 63°F , 17°C
Humidity: 83%
Barometer: 30.05 inHg , 1017.6 hPa
Clouds: Clear
Visibility: 10 miles , 16 km
2016/05/02 03:10 KJQF 020310Z AUTO 00000KT 10SM CLR 20/17 A3005 RMK AO2 LTG DSNT S THRU NW
 
KCLT - Charlotte, North Carolina, USA
Distance from station: W 20mi, 33km
Updated: Sun, 05/01/2016 10:52pm EDT
Mostly cloudy
Mostly cloudy
 Wind from SSW
Wind: SSW 5 mph , 7 km/h
Temperature: 64°F , 18°C
Dew Point: 61°F , 16°C
Humidity: 88%
Barometer: 30.03 inHg , 1016.9 hPa
Clouds: Mostly cloudy
Visibility: 10 miles , 16 km
Cloud details: Few Clouds 2000 ft
Partly cloudy 4500 ft
Mostly cloudy 10000 ft
Mostly cloudy 25000 ft
2016/05/02 02:52 KCLT 020252Z 21004KT 10SM FEW020 SCT045 BKN100 BKN250 18/16 A3003 RMK AO2 TSE51 SLP163 CONS LTGICCG DSNT SE AND S TS MOV E CB DSNT SE AND S 60007 T01830161 50007 $
KUZA - Rock Hill, South Carolina, USA
Distance from station: WSW 29mi, 47km
Updated: Sun, 05/01/2016 11:08pm EDT
Nearby Thunderstorm
Nearby Thunderstorm
 
Barometer: 30.04 inHg , 1017.3 hPa
Summary: Nearby Thunderstorm
2016/05/02 03:08 KUZA 020308Z AUTO VCTS A3004 RMK AO2 LTG DSNT SE-W TSE02 PWINO $
 
KVUJ - Albemarle Stanly, North Carolina, USA
Distance from station: NE 30mi, 48km
Updated: Sun, 05/01/2016 11:15pm EDT
Overcast
Overcast
 Wind from SSW
Wind: SSW 5 mph , 7 km/h
Temperature: 68°F , 20°C
Dew Point: 68°F , 20°C
Humidity: 100%
Barometer: 30.05 inHg , 1017.6 hPa
Clouds: Overcast
Visibility: 10 miles , 16 km
Cloud details: Overcast 1100 ft
2016/05/02 03:15 KVUJ 020315Z AUTO 20004KT 10SM OVC011 20/20 A3005 RMK AO2 LTG DSNT W T02040201
KAFP - Wadesboro/Anson, North Carolina, USA
Distance from station: ESE 31mi, 50km
Updated: Sun, 05/01/2016 11:10pm EDT
Rain, Overcast
Rain, Overcast
 Wind from S
Wind: S 6 mph , 9 km/h
Temperature: 70°F , 21°C
Dew Point: 68°F , 20°C
Humidity: 94%
Barometer: 30.01 inHg , 1016.3 hPa
Summary: Rain
Clouds: Overcast
Visibility: 10 miles , 16 km
Cloud details: Mostly cloudy 1100 ft
Mostly cloudy 4800 ft
Overcast 11000 ft
2016/05/02 03:10 KAFP 020310Z AUTO 18005KT 10SM RA BKN011 BKN048 OVC110 21/20 A3001 RMK AO2 T02080200
 
KAKH - Gastonia, North Carolina, USA
Distance from station: W 31mi, 51km
Updated: Sun, 05/01/2016 10:54pm EDT
Clear
Clear
 Wind from SW
Wind: SW 6 mph , 9 km/h
Temperature: 64°F , 18°C
Dew Point: 61°F , 16°C
Humidity: 88%
Barometer: 30.03 inHg , 1016.9 hPa
Clouds: Clear
Visibility: 10 miles , 16 km
2016/05/02 02:54 KAKH 020254Z AUTO 22005KT 10SM CLR 18/16 A3003 RMK AO2 RAE11 SLP164 P0000 60028 T01780156 51011 TSNO
KRUQ - Salisbury Rowan, North Carolina, USA
Distance from station: N 33mi, 53km
Updated: Sun, 05/01/2016 11:15pm EDT
Clear
Clear
 Wind from SW
Wind: SW 5 mph , 7 km/h
Temperature: 68°F , 20°C
Dew Point: 68°F , 20°C
Humidity: 100%
Barometer: 30.00 inHg , 1015.9 hPa
Clouds: Clear
Visibility: 10 miles , 16 km
2016/05/02 03:15 KRUQ 020315Z AUTO 23004KT 10SM CLR 20/20 A3000 RMK AO2 T02000200
 
KLKR - Lancaster, South Carolina, USA
Distance from station: SSW 35mi, 57km
Updated: Sun, 05/01/2016 11:35pm EDT
Thunderstorm mist, Overcast
Thunderstorm mist, Overcast
 Wind from NW
Wind: NW 8 mph , 13 km/h
Temperature: 68°F , 20°C
Dew Point: 68°F , 20°C
Humidity: 100%
Barometer: 30.07 inHg , 1018.3 hPa
Summary: Thunderstorm Mist
Clouds: Overcast
Visibility: 4 miles , 6 km
Cloud details: Mostly cloudy 1700 ft
Overcast 2300 ft
2016/05/02 03:35 KLKR 020335Z AUTO 32007KT 020V360 4SM TSBR BKN017 OVC023 20/20 A3007 RMK AO2 LTG DSNT ALQDS P0002 PWINO
KIPJ - Lincolnton, North Carolina, USA
Distance from station: WNW 39mi, 62km
Updated: Sun, 05/01/2016 11:10pm EDT
Clear
Clear
 Wind from SSW
Wind: SSW 3 mph , 6 km/h
Temperature: 66°F , 19°C
Dew Point: 63°F , 17°C
Humidity: 88%
Barometer: 30.02 inHg , 1016.6 hPa
Clouds: Clear
Visibility: 10 miles , 16 km
2016/05/02 03:10 KIPJ 020310Z AUTO 21003KT 10SM CLR 19/17 A3002 RMK AO2 T01880173
 
KDCM - Chester Catawba, South Carolina, USA
Distance from station: SW 44mi, 71km
Updated: Sun, 05/01/2016 11:15pm EDT
Rain, Overcast
Rain, Overcast
 Wind from calm
Wind: Calm
Temperature: 64°F , 18°C
Dew Point: 64°F , 18°C
Humidity: 100%
Barometer: 30.05 inHg , 1017.6 hPa
Summary: Rain
Clouds: Overcast
Visibility: 1 mile , 2 km
Cloud details: Mostly cloudy 1000 ft
Overcast 1900 ft
2016/05/02 03:15 KDCM 020315Z AUTO 00000KT 1SM RA BKN010 OVC019 18/18 A3005 RMK AO2 VIS 1/2V5 P0045
KSVH - Statesville, North Carolina, USA
Distance from station: NNW 44mi, 71km
Updated: Sun, 05/01/2016 11:15pm EDT
Overcast
Overcast
 Wind from calm
Wind: Calm
Temperature: 68°F , 20°C
Dew Point: 68°F , 20°C
Humidity: 100%
Barometer: 30.01 inHg , 1016.3 hPa
Clouds: Overcast
Visibility: 10 miles , 16 km
Cloud details: Mostly cloudy 2900 ft
Mostly cloudy 3600 ft
Overcast 12000 ft
2016/05/02 03:15 KSVH 020315Z AUTO 00000KT 10SM BKN029 BKN036 OVC120 20/20 A3001 RMK AO2 T01950195
 
KEXX - Davidson Cty Ap, North Carolina, USA
Distance from station: NNE 45mi, 72km
Updated: Sun, 05/01/2016 11:10pm EDT
Partly cloudy
Partly cloudy
 Wind from calm
Wind: Calm
Temperature: 68°F , 20°C
Dew Point: 66°F , 19°C
Humidity: 94%
Barometer: 30.01 inHg , 1016.3 hPa
Clouds: Partly cloudy
Visibility: 10 miles , 16 km
Cloud details: Partly cloudy 1500 ft
2016/05/02 03:10 KEXX 020310Z AUTO 00000KT 10SM SCT015 20/19 A3001 RMK AO2 T02000191
KCQW - Cheraw, South Carolina, USA
Distance from station: SE 49mi, 78km
Updated: Sun, 05/01/2016 11:15pm EDT
Clear
Clear
 Wind from SW
Wind: SW 6 mph , 9 km/h
Temperature: 66°F , 19°C
Dew Point: 64°F , 18°C
Humidity: 94%
Barometer: 30.03 inHg , 1016.9 hPa
Clouds: Clear
Visibility: 10 miles , 16 km
2016/05/02 03:15 KCQW 020315Z AUTO 22005KT 10SM CLR 19/18 A3003 RMK AO2